sensor_id;sensor_type;location;lat;lon;timestamp;pressure;altitude;pressure_sealevel;temperature;humidity
54455;BME280;40364;52.270;10.546;2023-08-30T00:01:35;99846.81;;;28.32;38.22
54455;BME280;40364;52.270;10.546;2023-08-30T00:04:02;99842.66;;;28.42;38.52
54455;BME280;40364;52.270;10.546;2023-08-30T00:06:30;99844.69;;;28.84;37.93
54455;BME280;40364;52.270;10.546;2023-08-30T00:08:58;99841.72;;;29.02;38.01
54455;BME280;40364;52.270;10.546;2023-08-30T00:11:25;99833.63;;;28.68;37.94
54455;BME280;40364;52.270;10.546;2023-08-30T00:13:52;99839.44;;;27.98;39.12
54455;BME280;40364;52.270;10.546;2023-08-30T00:16:18;99836.97;;;28.15;38.88
54455;BME280;40364;52.270;10.546;2023-08-30T00:18:45;99832.91;;;28.49;37.84
54455;BME280;40364;52.270;10.546;2023-08-30T00:21:11;99834.28;;;28.30;38.63
54455;BME280;40364;52.270;10.546;2023-08-30T00:23:38;99837.38;;;27.90;38.86
54455;BME280;40364;52.270;10.546;2023-08-30T00:26:06;99834.91;;;28.67;38.10
54455;BME280;40364;52.270;10.546;2023-08-30T00:28:33;99832.75;;;28.76;37.67
54455;BME280;40364;52.270;10.546;2023-08-30T00:30:59;99835.28;;;28.83;37.51
54455;BME280;40364;52.270;10.546;2023-08-30T00:33:26;99834.66;;;28.79;37.61
54455;BME280;40364;52.270;10.546;2023-08-30T00:35:57;99838.38;;;28.71;37.65
54455;BME280;40364;52.270;10.546;2023-08-30T00:38:25;99849.59;;;28.50;38.58
54455;BME280;40364;52.270;10.546;2023-08-30T00:40:52;99847.03;;;28.62;37.85
54455;BME280;40364;52.270;10.546;2023-08-30T00:43:20;99851.66;;;28.92;37.87
54455;BME280;40364;52.270;10.546;2023-08-30T00:45:47;99843.50;;;28.67;38.20
54455;BME280;40364;52.270;10.546;2023-08-30T00:48:15;99849.94;;;28.86;38.04
54455;BME280;40364;52.270;10.546;2023-08-30T00:50:43;99851.59;;;28.35;38.13
54455;BME280;40364;52.270;10.546;2023-08-30T00:53:13;99844.72;;;27.72;39.43
54455;BME280;40364;52.270;10.546;2023-08-30T00:55:42;99835.03;;;27.42;40.74
54455;BME280;40364;52.270;10.546;2023-08-30T00:58:09;99841.50;;;27.06;41.50
54455;BME280;40364;52.270;10.546;2023-08-30T01:00:38;99842.78;;;27.05;41.71
54455;BME280;40364;52.270;10.546;2023-08-30T01:03:05;99843.09;;;26.98;41.70
54455;BME280;40364;52.270;10.546;2023-08-30T01:05:32;99840.66;;;26.88;41.88
54455;BME280;40364;52.270;10.546;2023-08-30T01:07:59;99836.16;;;26.28;43.50
54455;BME280;40364;52.270;10.546;2023-08-30T01:10:36;99823.13;;;27.62;40.69
54455;BME280;40364;52.270;10.546;2023-08-30T01:13:09;99822.09;;;28.02;39.63
54455;BME280;40364;52.270;10.546;2023-08-30T01:15:38;99827.22;;;27.06;41.47
54455;BME280;40364;52.270;10.546;2023-08-30T01:18:05;99824.69;;;27.08;41.60
54455;BME280;40364;52.270;10.546;2023-08-30T01:20:35;99819.63;;;27.67;40.29
54455;BME280;40364;52.270;10.546;2023-08-30T01:23:06;99816.03;;;26.81;42.04
54455;BME280;40364;52.270;10.546;2023-08-30T01:25:43;99817.56;;;27.49;40.73
54455;BME280;40364;52.270;10.546;2023-08-30T01:28:15;99812.63;;;27.41;40.83
54455;BME280;40364;52.270;10.546;2023-08-30T01:30:43;99815.63;;;27.28;41.07
54455;BME280;40364;52.270;10.546;2023-08-30T01:33:11;99817.56;;;27.13;41.31
54455;BME280;40364;52.270;10.546;2023-08-30T01:35:40;99812.44;;;26.99;41.49
54455;BME280;40364;52.270;10.546;2023-08-30T01:38:07;99819.47;;;27.16;41.08
54455;BME280;40364;52.270;10.546;2023-08-30T01:40:36;99820.16;;;26.80;41.55
54455;BME280;40364;52.270;10.546;2023-08-30T01:43:04;99821.28;;;28.01;39.30
54455;BME280;40364;52.270;10.546;2023-08-30T01:45:35;99825.38;;;28.28;39.09
54455;BME280;40364;52.270;10.546;2023-08-30T01:48:02;99829.81;;;28.29;38.51
54455;BME280;40364;52.270;10.546;2023-08-30T01:50:31;99828.09;;;28.22;38.63
54455;BME280;40364;52.270;10.546;2023-08-30T01:52:59;99825.53;;;28.15;38.69
54455;BME280;40364;52.270;10.546;2023-08-30T01:55:28;99835.53;;;28.29;38.56
54455;BME280;40364;52.270;10.546;2023-08-30T01:57:56;99835.81;;;27.15;40.16
54455;BME280;40364;52.270;10.546;2023-08-30T02:00:22;99836.31;;;26.65;41.26
54455;BME280;40364;52.270;10.546;2023-08-30T02:02:50;99834.22;;;25.50;44.85
54455;BME280;40364;52.270;10.546;2023-08-30T02:05:17;99821.97;;;25.63;43.77
54455;BME280;40364;52.270;10.546;2023-08-30T02:07:48;99830.91;;;26.58;42.74
54455;BME280;40364;52.270;10.546;2023-08-30T02:10:21;99828.50;;;27.14;41.28
54455;BME280;40364;52.270;10.546;2023-08-30T02:12:52;99833.41;;;27.87;39.87
54455;BME280;40364;52.270;10.546;2023-08-30T02:15:20;99827.50;;;27.91;39.22
54455;BME280;40364;52.270;10.546;2023-08-30T02:17:48;99838.97;;;27.91;39.17
54455;BME280;40364;52.270;10.546;2023-08-30T02:20:16;99833.22;;;28.00;39.09
54455;BME280;40364;52.270;10.546;2023-08-30T02:22:43;99831.19;;;27.09;40.34
54455;BME280;40364;52.270;10.546;2023-08-30T02:25:09;99830.47;;;26.77;41.28
54455;BME280;40364;52.270;10.546;2023-08-30T02:27:36;99831.16;;;26.41;41.74
54455;BME280;40364;52.270;10.546;2023-08-30T02:30:03;99830.72;;;27.01;41.16
54455;BME280;40364;52.270;10.546;2023-08-30T02:32:30;99831.25;;;26.69;41.32
54455;BME280;40364;52.270;10.546;2023-08-30T02:34:57;99836.91;;;27.09;40.64
54455;BME280;40364;52.270;10.546;2023-08-30T02:37:25;99825.94;;;27.90;39.20
54455;BME280;40364;52.270;10.546;2023-08-30T02:39:51;99830.09;;;27.43;39.54
54455;BME280;40364;52.270;10.546;2023-08-30T02:42:18;99829.13;;;27.55;39.12
54455;BME280;40364;52.270;10.546;2023-08-30T02:44:44;99826.59;;;27.57;39.21
54455;BME280;40364;52.270;10.546;2023-08-30T02:47:11;99813.59;;;27.47;38.96
54455;BME280;40364;52.270;10.546;2023-08-30T02:49:38;99816.59;;;27.43;39.15
54455;BME280;40364;52.270;10.546;2023-08-30T02:52:04;99821.50;;;27.52;39.21
54455;BME280;40364;52.270;10.546;2023-08-30T02:54:32;99823.34;;;28.01;38.32
54455;BME280;40364;52.270;10.546;2023-08-30T02:56:59;99819.63;;;27.49;39.21
54455;BME280;40364;52.270;10.546;2023-08-30T02:59:26;99819.28;;;27.38;39.16
54455;BME280;40364;52.270;10.546;2023-08-30T03:01:53;99823.09;;;27.35;39.01
54455;BME280;40364;52.270;10.546;2023-08-30T03:04:20;99829.13;;;27.55;38.73
54455;BME280;40364;52.270;10.546;2023-08-30T03:06:46;99818.03;;;27.48;38.44
54455;BME280;40364;52.270;10.546;2023-08-30T03:09:13;99814.84;;;27.28;39.11
54455;BME280;40364;52.270;10.546;2023-08-30T03:11:41;99802.13;;;27.65;38.90
54455;BME280;40364;52.270;10.546;2023-08-30T03:14:07;99810.91;;;26.67;40.79
54455;BME280;40364;52.270;10.546;2023-08-30T03:16:34;99810.38;;;27.27;39.53
54455;BME280;40364;52.270;10.546;2023-08-30T03:19:01;99812.47;;;27.63;39.13
54455;BME280;40364;52.270;10.546;2023-08-30T03:21:28;99811.66;;;27.44;39.02
54455;BME280;40364;52.270;10.546;2023-08-30T03:23:55;99813.25;;;27.08;39.66
54455;BME280;40364;52.270;10.546;2023-08-30T03:26:21;99812.63;;;27.32;39.11
54455;BME280;40364;52.270;10.546;2023-08-30T03:28:49;99805.31;;;27.03;39.88
54455;BME280;40364;52.270;10.546;2023-08-30T03:31:17;99806.25;;;27.00;39.57
54455;BME280;40364;52.270;10.546;2023-08-30T03:33:44;99812.31;;;27.11;39.16
54455;BME280;40364;52.270;10.546;2023-08-30T03:36:12;99807.38;;;27.12;39.67
54455;BME280;40364;52.270;10.546;2023-08-30T03:38:39;99808.81;;;27.07;39.34
54455;BME280;40364;52.270;10.546;2023-08-30T03:41:06;99820.88;;;27.11;39.13
54455;BME280;40364;52.270;10.546;2023-08-30T03:43:33;99815.50;;;27.13;39.63
54455;BME280;40364;52.270;10.546;2023-08-30T03:46:01;99804.06;;;27.50;39.09
54455;BME280;40364;52.270;10.546;2023-08-30T03:48:28;99795.31;;;27.08;39.28
54455;BME280;40364;52.270;10.546;2023-08-30T03:50:55;99798.81;;;27.30;39.21
54455;BME280;40364;52.270;10.546;2023-08-30T03:53:22;99798.31;;;27.23;39.07
54455;BME280;40364;52.270;10.546;2023-08-30T03:55:49;99793.22;;;26.99;39.26
54455;BME280;40364;52.270;10.546;2023-08-30T03:58:18;99795.47;;;27.32;39.40
54455;BME280;40364;52.270;10.546;2023-08-30T04:00:45;99795.66;;;26.61;40.57
54455;BME280;40364;52.270;10.546;2023-08-30T04:03:14;99787.69;;;27.50;38.98
54455;BME280;40364;52.270;10.546;2023-08-30T04:05:41;99790.69;;;27.38;38.73
54455;BME280;40364;52.270;10.546;2023-08-30T04:08:08;99795.16;;;27.02;39.17
54455;BME280;40364;52.270;10.546;2023-08-30T04:10:35;99790.72;;;27.20;38.79
54455;BME280;40364;52.270;10.546;2023-08-30T04:13:02;99793.19;;;26.81;39.98
54455;BME280;40364;52.270;10.546;2023-08-30T04:15:32;99781.09;;;25.88;42.22
54455;BME280;40364;52.270;10.546;2023-08-30T04:17:58;99776.25;;;26.37;41.13
54455;BME280;40364;52.270;10.546;2023-08-30T04:20:26;99776.59;;;26.08;42.91
54455;BME280;40364;52.270;10.546;2023-08-30T04:22:53;99767.25;;;25.77;42.96
54455;BME280;40364;52.270;10.546;2023-08-30T04:25:20;99772.56;;;26.28;41.61
54455;BME280;40364;52.270;10.546;2023-08-30T04:27:47;99778.13;;;26.90;39.62
54455;BME280;40364;52.270;10.546;2023-08-30T04:30:14;99766.56;;;27.11;39.23
54455;BME280;40364;52.270;10.546;2023-08-30T04:32:41;99760.53;;;27.00;39.00
54455;BME280;40364;52.270;10.546;2023-08-30T04:35:17;99765.91;;;27.44;38.11
54455;BME280;40364;52.270;10.546;2023-08-30T04:40:46;99763.22;;;27.31;38.62
54455;BME280;40364;52.270;10.546;2023-08-30T04:43:20;99760.03;;;27.66;37.50
54455;BME280;40364;52.270;10.546;2023-08-30T04:45:47;99773.56;;;27.20;38.21
54455;BME280;40364;52.270;10.546;2023-08-30T04:48:14;99768.16;;;27.03;38.28
54455;BME280;40364;52.270;10.546;2023-08-30T04:50:41;99774.19;;;26.96;38.63
54455;BME280;40364;52.270;10.546;2023-08-30T04:53:07;99764.00;;;26.95;38.76
54455;BME280;40364;52.270;10.546;2023-08-30T04:55:34;99774.50;;;26.98;38.75
54455;BME280;40364;52.270;10.546;2023-08-30T04:58:02;99775.13;;;27.48;38.38
54455;BME280;40364;52.270;10.546;2023-08-30T05:00:29;99779.03;;;25.88;40.34
54455;BME280;40364;52.270;10.546;2023-08-30T05:02:56;99768.69;;;25.38;42.57
54455;BME280;40364;52.270;10.546;2023-08-30T05:05:25;99785.81;;;26.12;41.26
54455;BME280;40364;52.270;10.546;2023-08-30T05:07:52;99781.47;;;26.88;39.87
54455;BME280;40364;52.270;10.546;2023-08-30T05:10:19;99783.19;;;26.76;39.63
54455;BME280;40364;52.270;10.546;2023-08-30T05:12:45;99788.47;;;27.05;38.89
54455;BME280;40364;52.270;10.546;2023-08-30T05:15:18;99778.00;;;27.39;38.84
54455;BME280;40364;52.270;10.546;2023-08-30T05:17:45;99768.78;;;26.31;40.57
54455;BME280;40364;52.270;10.546;2023-08-30T05:20:11;99778.22;;;26.49;40.57
54455;BME280;40364;52.270;10.546;2023-08-30T05:22:38;99769.41;;;27.39;38.99
54455;BME280;40364;52.270;10.546;2023-08-30T05:25:06;99768.47;;;25.98;41.55
54455;BME280;40364;52.270;10.546;2023-08-30T05:27:33;99760.78;;;26.66;40.60
54455;BME280;40364;52.270;10.546;2023-08-30T05:29:59;99760.72;;;26.07;41.98
54455;BME280;40364;52.270;10.546;2023-08-30T05:32:27;99760.94;;;25.60;43.87
54455;BME280;40364;52.270;10.546;2023-08-30T05:34:54;99751.59;;;25.38;44.14
54455;BME280;40364;52.270;10.546;2023-08-30T05:37:21;99760.19;;;24.69;46.15
54455;BME280;40364;52.270;10.546;2023-08-30T05:39:47;99759.16;;;25.75;43.38
54455;BME280;40364;52.270;10.546;2023-08-30T05:42:14;99764.22;;;25.06;45.40
54455;BME280;40364;52.270;10.546;2023-08-30T05:44:41;99766.84;;;25.44;44.62
54455;BME280;40364;52.270;10.546;2023-08-30T05:47:08;99772.53;;;24.28;47.52
54455;BME280;40364;52.270;10.546;2023-08-30T05:49:41;99764.00;;;24.15;49.65
54455;BME280;40364;52.270;10.546;2023-08-30T05:52:08;99756.56;;;25.68;45.15
54455;BME280;40364;52.270;10.546;2023-08-30T05:54:34;99763.00;;;25.81;43.97
54455;BME280;40364;52.270;10.546;2023-08-30T05:57:01;99762.94;;;25.72;44.56
54455;BME280;40364;52.270;10.546;2023-08-30T05:59:28;99763.41;;;25.27;45.21
54455;BME280;40364;52.270;10.546;2023-08-30T06:01:55;99754.41;;;25.29;45.64
54455;BME280;40364;52.270;10.546;2023-08-30T06:04:22;99760.59;;;26.51;43.04
54455;BME280;40364;52.270;10.546;2023-08-30T06:06:50;99753.19;;;27.72;40.52
54455;BME280;40364;52.270;10.546;2023-08-30T06:09:16;99754.75;;;27.73;39.42
54455;BME280;40364;52.270;10.546;2023-08-30T06:11:43;99755.66;;;27.89;39.06
54455;BME280;40364;52.270;10.546;2023-08-30T06:14:10;99772.19;;;28.36;38.83
54455;BME280;40364;52.270;10.546;2023-08-30T06:16:36;99760.72;;;26.07;43.05
54455;BME280;40364;52.270;10.546;2023-08-30T06:19:03;99765.50;;;26.10;43.44
54455;BME280;40364;52.270;10.546;2023-08-30T06:21:30;99757.69;;;25.49;45.48
54455;BME280;40364;52.270;10.546;2023-08-30T06:23:58;99762.22;;;26.21;44.08
54455;BME280;40364;52.270;10.546;2023-08-30T06:26:24;99770.47;;;26.59;42.67
54455;BME280;40364;52.270;10.546;2023-08-30T06:28:51;99764.44;;;26.66;42.40
54455;BME280;40364;52.270;10.546;2023-08-30T06:31:17;99762.41;;;26.85;42.60
54455;BME280;40364;52.270;10.546;2023-08-30T06:33:44;99757.94;;;26.93;42.29
54455;BME280;40364;52.270;10.546;2023-08-30T06:36:12;99743.28;;;28.81;39.29
54455;BME280;40364;52.270;10.546;2023-08-30T06:38:41;99754.16;;;27.42;40.54
54455;BME280;40364;52.270;10.546;2023-08-30T06:41:09;99757.72;;;28.39;39.42
54455;BME280;40364;52.270;10.546;2023-08-30T06:43:36;99760.09;;;27.90;39.80
54455;BME280;40364;52.270;10.546;2023-08-30T06:46:03;99748.66;;;27.90;40.10
54455;BME280;40364;52.270;10.546;2023-08-30T06:48:30;99758.00;;;28.41;39.03
54455;BME280;40364;52.270;10.546;2023-08-30T06:50:57;99752.09;;;28.45;39.12
54455;BME280;40364;52.270;10.546;2023-08-30T06:53:24;99745.78;;;27.99;39.53
54455;BME280;40364;52.270;10.546;2023-08-30T06:55:56;99749.69;;;29.00;38.50
54455;BME280;40364;52.270;10.546;2023-08-30T06:58:24;99740.13;;;29.18;37.90
54455;BME280;40364;52.270;10.546;2023-08-30T07:00:51;99738.50;;;30.00;36.55
54455;BME280;40364;52.270;10.546;2023-08-30T07:03:18;99753.44;;;30.54;35.64
54455;BME280;40364;52.270;10.546;2023-08-30T07:05:45;99742.34;;;30.26;35.83
54455;BME280;40364;52.270;10.546;2023-08-30T07:08:13;99742.69;;;30.89;34.94
54455;BME280;40364;52.270;10.546;2023-08-30T07:10:40;99748.09;;;29.82;36.12
54455;BME280;40364;52.270;10.546;2023-08-30T07:13:06;99755.81;;;29.91;36.66
54455;BME280;40364;52.270;10.546;2023-08-30T07:15:37;99749.41;;;29.96;36.33
54455;BME280;40364;52.270;10.546;2023-08-30T07:18:04;99747.53;;;30.42;36.09
54455;BME280;40364;52.270;10.546;2023-08-30T07:20:31;99750.09;;;29.76;36.41
54455;BME280;40364;52.270;10.546;2023-08-30T07:22:58;99745.44;;;30.08;36.35
54455;BME280;40364;52.270;10.546;2023-08-30T07:25:24;99749.19;;;29.55;37.08
54455;BME280;40364;52.270;10.546;2023-08-30T07:27:51;99748.50;;;29.75;36.61
54455;BME280;40364;52.270;10.546;2023-08-30T07:30:18;99750.09;;;28.36;39.49
54455;BME280;40364;52.270;10.546;2023-08-30T07:32:46;99743.56;;;29.61;38.06
54455;BME280;40364;52.270;10.546;2023-08-30T07:35:13;99743.75;;;29.04;38.56
54455;BME280;40364;52.270;10.546;2023-08-30T07:37:39;99746.00;;;28.76;39.12
54455;BME280;40364;52.270;10.546;2023-08-30T07:40:07;99738.97;;;29.98;37.40
54455;BME280;40364;52.270;10.546;2023-08-30T07:42:34;99751.16;;;28.96;39.00
54455;BME280;40364;52.270;10.546;2023-08-30T07:45:01;99743.19;;;29.14;38.53
54455;BME280;40364;52.270;10.546;2023-08-30T07:47:28;99750.16;;;28.99;38.57
54455;BME280;40364;52.270;10.546;2023-08-30T07:49:56;99748.25;;;29.20;38.98
54455;BME280;40364;52.270;10.546;2023-08-30T07:52:23;99745.31;;;28.33;40.17
54455;BME280;40364;52.270;10.546;2023-08-30T07:54:49;99748.72;;;28.46;39.79
54455;BME280;40364;52.270;10.546;2023-08-30T07:57:16;99739.16;;;28.49;40.13
54455;BME280;40364;52.270;10.546;2023-08-30T07:59:42;99741.28;;;29.11;38.76
54455;BME280;40364;52.270;10.546;2023-08-30T08:02:09;99732.16;;;30.45;36.71
54455;BME280;40364;52.270;10.546;2023-08-30T08:04:35;99743.75;;;29.57;37.06
54455;BME280;40364;52.270;10.546;2023-08-30T08:07:04;99740.81;;;30.66;36.49
54455;BME280;40364;52.270;10.546;2023-08-30T08:09:31;99737.41;;;28.76;38.47
54455;BME280;40364;52.270;10.546;2023-08-30T08:11:58;99746.16;;;28.81;38.10
54455;BME280;40364;52.270;10.546;2023-08-30T08:14:25;99740.13;;;28.23;38.80
54455;BME280;40364;52.270;10.546;2023-08-30T08:16:52;99742.88;;;29.12;37.44
54455;BME280;40364;52.270;10.546;2023-08-30T08:19:18;99733.06;;;29.72;36.01
54455;BME280;40364;52.270;10.546;2023-08-30T08:21:47;99728.66;;;29.18;37.22
54455;BME280;40364;52.270;10.546;2023-08-30T08:24:16;99732.44;;;30.83;35.23
54455;BME280;40364;52.270;10.546;2023-08-30T08:26:42;99735.22;;;30.07;36.08
54455;BME280;40364;52.270;10.546;2023-08-30T08:29:09;99743.41;;;31.04;34.62
54455;BME280;40364;52.270;10.546;2023-08-30T08:31:36;99732.88;;;29.08;37.29
54455;BME280;40364;52.270;10.546;2023-08-30T08:34:08;99729.47;;;31.18;34.30
54455;BME280;40364;52.270;10.546;2023-08-30T08:36:35;99731.94;;;30.84;34.08
54455;BME280;40364;52.270;10.546;2023-08-30T08:39:02;99732.47;;;29.83;36.17
54455;BME280;40364;52.270;10.546;2023-08-30T08:41:35;99724.53;;;30.07;36.10
54455;BME280;40364;52.270;10.546;2023-08-30T08:44:04;99728.00;;;29.67;37.01
54455;BME280;40364;52.270;10.546;2023-08-30T08:46:32;99714.16;;;30.65;35.22
54455;BME280;40364;52.270;10.546;2023-08-30T08:49:01;99715.81;;;31.12;34.96
54455;BME280;40364;52.270;10.546;2023-08-30T08:51:29;99714.34;;;30.41;34.96
54455;BME280;40364;52.270;10.546;2023-08-30T08:54:02;99719.19;;;31.89;32.58
54455;BME280;40364;52.270;10.546;2023-08-30T08:56:31;99719.94;;;31.84;32.08
54455;BME280;40364;52.270;10.546;2023-08-30T08:58:57;99724.47;;;32.70;31.16
54455;BME280;40364;52.270;10.546;2023-08-30T09:01:24;99714.94;;;33.01;31.28
54455;BME280;40364;52.270;10.546;2023-08-30T09:03:51;99719.81;;;32.78;30.50
54455;BME280;40364;52.270;10.546;2023-08-30T09:06:18;99716.38;;;33.50;30.22
54455;BME280;40364;52.270;10.546;2023-08-30T09:08:45;99715.09;;;32.80;30.87
54455;BME280;40364;52.270;10.546;2023-08-30T09:11:11;99716.94;;;32.35;30.49
54455;BME280;40364;52.270;10.546;2023-08-30T09:13:42;99718.78;;;31.18;32.69
54455;BME280;40364;52.270;10.546;2023-08-30T09:16:12;99726.09;;;32.34;31.77
54455;BME280;40364;52.270;10.546;2023-08-30T09:18:39;99716.09;;;33.42;29.68
54455;BME280;40364;52.270;10.546;2023-08-30T09:21:05;99722.19;;;32.42;30.66
54455;BME280;40364;52.270;10.546;2023-08-30T09:23:32;99725.09;;;31.74;31.83
54455;BME280;40364;52.270;10.546;2023-08-30T09:26:00;99719.38;;;31.54;31.93
54455;BME280;40364;52.270;10.546;2023-08-30T09:28:27;99712.34;;;32.18;31.61
54455;BME280;40364;52.270;10.546;2023-08-30T09:30:57;99705.38;;;34.21;28.65
54455;BME280;40364;52.270;10.546;2023-08-30T09:33:30;99715.88;;;34.13;29.40
54455;BME280;40364;52.270;10.546;2023-08-30T09:35:57;99715.72;;;33.01;29.72
54455;BME280;40364;52.270;10.546;2023-08-30T09:38:24;99717.19;;;32.80;29.10
54455;BME280;40364;52.270;10.546;2023-08-30T09:40:51;99714.13;;;31.52;30.64
54455;BME280;40364;52.270;10.546;2023-08-30T09:43:18;99707.53;;;32.03;30.09
54455;BME280;40364;52.270;10.546;2023-08-30T09:45:47;99704.53;;;34.26;27.67
54455;BME280;40364;52.270;10.546;2023-08-30T09:48:15;99703.81;;;35.47;26.20
54455;BME280;40364;52.270;10.546;2023-08-30T09:50:42;99706.19;;;36.14;25.46
54455;BME280;40364;52.270;10.546;2023-08-30T09:53:11;99705.66;;;35.03;26.18
54455;BME280;40364;52.270;10.546;2023-08-30T09:55:41;99701.41;;;33.74;28.38
54455;BME280;40364;52.270;10.546;2023-08-30T09:58:09;99688.16;;;35.26;26.73
54455;BME280;40364;52.270;10.546;2023-08-30T10:00:36;99685.63;;;34.42;27.24
54455;BME280;40364;52.270;10.546;2023-08-30T10:03:04;99685.97;;;34.91;26.40
54455;BME280;40364;52.270;10.546;2023-08-30T10:05:33;99695.84;;;33.26;28.56
54455;BME280;40364;52.270;10.546;2023-08-30T10:08:02;99690.31;;;32.14;30.26
54455;BME280;40364;52.270;10.546;2023-08-30T10:10:31;99690.09;;;32.61;29.60
54455;BME280;40364;52.270;10.546;2023-08-30T10:12:58;99686.22;;;33.90;27.51
54455;BME280;40364;52.270;10.546;2023-08-30T10:15:25;99677.81;;;33.59;27.58
54455;BME280;40364;52.270;10.546;2023-08-30T10:17:54;99670.72;;;33.76;28.55
54455;BME280;40364;52.270;10.546;2023-08-30T10:20:21;99679.66;;;33.84;28.26
54455;BME280;40364;52.270;10.546;2023-08-30T10:22:50;99689.50;;;32.99;28.91
54455;BME280;40364;52.270;10.546;2023-08-30T10:25:19;99678.50;;;32.07;30.25
54455;BME280;40364;52.270;10.546;2023-08-30T10:27:48;99667.41;;;34.64;27.18
54455;BME280;40364;52.270;10.546;2023-08-30T10:30:18;99669.88;;;34.26;27.64
54455;BME280;40364;52.270;10.546;2023-08-30T10:32:45;99676.38;;;33.09;28.65
54455;BME280;40364;52.270;10.546;2023-08-30T10:35:13;99672.00;;;34.31;27.98
54455;BME280;40364;52.270;10.546;2023-08-30T10:37:40;99680.69;;;33.98;28.43
54455;BME280;40364;52.270;10.546;2023-08-30T10:40:09;99678.34;;;33.63;28.11
54455;BME280;40364;52.270;10.546;2023-08-30T10:42:36;99674.75;;;32.86;29.33
54455;BME280;40364;52.270;10.546;2023-08-30T10:45:05;99678.19;;;32.36;29.73
54455;BME280;40364;52.270;10.546;2023-08-30T10:47:34;99667.44;;;31.37;31.72
54455;BME280;40364;52.270;10.546;2023-08-30T10:50:05;99681.97;;;30.81;32.04
54455;BME280;40364;52.270;10.546;2023-08-30T10:52:33;99675.78;;;32.29;30.51
54455;BME280;40364;52.270;10.546;2023-08-30T10:55:06;99673.81;;;33.23;29.02
54455;BME280;40364;52.270;10.546;2023-08-30T10:57:34;99676.50;;;33.54;27.97
54455;BME280;40364;52.270;10.546;2023-08-30T11:00:06;99673.81;;;35.03;26.47
54455;BME280;40364;52.270;10.546;2023-08-30T11:02:34;99669.88;;;34.32;27.54
54455;BME280;40364;52.270;10.546;2023-08-30T11:05:01;99667.31;;;32.74;29.38
54455;BME280;40364;52.270;10.546;2023-08-30T11:07:29;99664.97;;;32.67;28.56
54455;BME280;40364;52.270;10.546;2023-08-30T11:09:56;99657.97;;;32.31;28.96
54455;BME280;40364;52.270;10.546;2023-08-30T11:12:22;99671.44;;;32.51;28.37
54455;BME280;40364;52.270;10.546;2023-08-30T11:14:52;99675.50;;;32.75;28.71
54455;BME280;40364;52.270;10.546;2023-08-30T11:17:19;99665.97;;;34.12;26.97
54455;BME280;40364;52.270;10.546;2023-08-30T11:19:49;99654.88;;;34.44;25.80
54455;BME280;40364;52.270;10.546;2023-08-30T11:22:16;99654.09;;;32.39;28.58
54455;BME280;40364;52.270;10.546;2023-08-30T11:24:47;99649.31;;;32.85;28.07
54455;BME280;40364;52.270;10.546;2023-08-30T11:27:16;99656.88;;;32.76;28.45
54455;BME280;40364;52.270;10.546;2023-08-30T11:29:43;99656.13;;;32.28;29.16
54455;BME280;40364;52.270;10.546;2023-08-30T11:32:11;99643.91;;;33.26;28.66
54455;BME280;40364;52.270;10.546;2023-08-30T11:34:37;99649.63;;;31.96;29.71
54455;BME280;40364;52.270;10.546;2023-08-30T11:37:04;99643.72;;;32.16;29.20
54455;BME280;40364;52.270;10.546;2023-08-30T11:39:31;99643.94;;;33.48;27.49
54455;BME280;40364;52.270;10.546;2023-08-30T11:41:57;99635.47;;;34.34;27.04
54455;BME280;40364;52.270;10.546;2023-08-30T11:44:24;99635.25;;;33.26;27.26
54455;BME280;40364;52.270;10.546;2023-08-30T11:46:57;99641.81;;;32.02;29.20
54455;BME280;40364;52.270;10.546;2023-08-30T11:49:26;99629.72;;;33.17;28.21
54455;BME280;40364;52.270;10.546;2023-08-30T11:51:54;99634.19;;;32.41;28.82
54455;BME280;40364;52.270;10.546;2023-08-30T11:54:22;99627.88;;;33.08;28.67
54455;BME280;40364;52.270;10.546;2023-08-30T11:56:50;99626.03;;;33.10;28.05
54455;BME280;40364;52.270;10.546;2023-08-30T11:59:20;99629.78;;;33.28;28.10
54455;BME280;40364;52.270;10.546;2023-08-30T12:01:47;99624.78;;;33.90;27.21
54455;BME280;40364;52.270;10.546;2023-08-30T12:04:14;99616.56;;;32.88;27.99
54455;BME280;40364;52.270;10.546;2023-08-30T12:06:51;99631.50;;;31.90;29.46
54455;BME280;40364;52.270;10.546;2023-08-30T12:09:18;99619.66;;;31.51;30.03
54455;BME280;40364;52.270;10.546;2023-08-30T12:11:47;99628.28;;;32.19;29.57
54455;BME280;40364;52.270;10.546;2023-08-30T12:14:13;99627.00;;;31.77;29.76
54455;BME280;40364;52.270;10.546;2023-08-30T12:16:40;99621.28;;;31.89;29.74
54455;BME280;40364;52.270;10.546;2023-08-30T12:19:07;99615.34;;;33.50;28.31
54455;BME280;40364;52.270;10.546;2023-08-30T12:21:39;99609.84;;;35.13;26.28
54455;BME280;40364;52.270;10.546;2023-08-30T12:24:08;99605.59;;;35.85;25.20
54455;BME280;40364;52.270;10.546;2023-08-30T12:26:34;99600.66;;;33.31;28.34
54455;BME280;40364;52.270;10.546;2023-08-30T12:29:03;99611.50;;;32.66;28.99
54455;BME280;40364;52.270;10.546;2023-08-30T12:31:32;99601.44;;;32.39;29.66
54455;BME280;40364;52.270;10.546;2023-08-30T12:33:59;99591.41;;;34.00;27.85
54455;BME280;40364;52.270;10.546;2023-08-30T12:36:25;99591.03;;;34.95;26.48
54455;BME280;40364;52.270;10.546;2023-08-30T12:38:52;99583.81;;;33.69;27.97
54455;BME280;40364;52.270;10.546;2023-08-30T12:41:20;99590.09;;;33.95;27.73
54455;BME280;40364;52.270;10.546;2023-08-30T12:43:48;99579.28;;;34.18;27.94
54455;BME280;40364;52.270;10.546;2023-08-30T12:46:15;99581.78;;;33.30;28.64
54455;BME280;40364;52.270;10.546;2023-08-30T12:48:42;99585.38;;;33.08;28.66
54455;BME280;40364;52.270;10.546;2023-08-30T12:51:09;99574.91;;;33.72;27.98
54455;BME280;40364;52.270;10.546;2023-08-30T12:53:35;99579.84;;;33.94;27.92
54455;BME280;40364;52.270;10.546;2023-08-30T12:56:02;99576.09;;;31.63;30.86